createdAt,value
2018-11-07T00:04:52.773Z,6.2
2018-11-07T00:14:53.773Z,6.7
2018-11-07T00:24:53.701Z,6.7
2018-11-07T00:34:54.202Z,6.6
2018-11-07T00:44:54.770Z,6.3
2018-11-07T00:54:54.398Z,5.6
2018-11-07T02:13:22.362Z,4.7
2018-11-07T02:23:20.403Z,11.7
2018-11-07T02:33:18.280Z,14
2018-11-07T02:43:16.887Z,11.1
2018-11-07T02:53:16.521Z,5.5
2018-11-07T03:03:16.164Z,5.6
2018-11-07T03:13:17.075Z,5
2018-11-07T03:23:16.550Z,5
2018-11-07T03:33:16.134Z,4.8
2018-11-07T03:43:16.351Z,5.3
2018-11-07T03:53:16.157Z,4.6
2018-11-07T04:03:15.795Z,4.1
2018-11-07T04:13:15.293Z,4.5
2018-11-07T04:23:14.480Z,9.9
2018-11-07T04:33:14.161Z,4.7
2018-11-07T04:43:11.992Z,9.9
2018-11-07T04:53:09.849Z,10.2
2018-11-07T05:03:07.794Z,10.5
2018-11-07T05:13:07.831Z,4.2
2018-11-07T05:23:07.899Z,4.3
2018-11-07T05:33:07.462Z,4
2018-11-07T05:43:06.984Z,4.1
2018-11-07T05:53:06.684Z,4.3
2018-11-07T06:03:06.222Z,4.6
2018-11-07T06:13:05.983Z,4.8
2018-11-07T06:23:05.693Z,6.6
2018-11-07T06:33:05.784Z,5.3
2018-11-07T06:43:03.689Z,11.1
2018-11-07T06:53:01.925Z,11.4
2018-11-07T07:03:02.578Z,6.4
2018-11-07T07:13:02.291Z,6.8
2018-11-07T07:23:02.744Z,6.2
2018-11-07T07:33:05.060Z,7
2018-11-07T07:43:05.472Z,6.8
2018-11-07T07:53:06.525Z,7.5
2018-11-07T08:03:16.456Z,6.8
2018-11-07T08:13:27.143Z,6.2
2018-11-07T08:23:25.747Z,12.5
2018-11-07T08:33:26.389Z,7
2018-11-07T08:43:26.079Z,7.1
2018-11-07T08:53:25.788Z,5.4
2018-11-07T09:03:26.211Z,4.2
2018-11-07T09:13:24.360Z,9.1
2018-11-07T09:23:24.668Z,9.3
2018-11-07T09:33:24.211Z,4.7
2018-11-07T09:43:24.030Z,4.6
2018-11-07T09:53:23.566Z,4.2
2018-11-07T10:03:32.451Z,3.5
2018-11-07T10:13:32.504Z,2.3
2018-11-07T10:23:30.889Z,5.5
2018-11-07T10:33:41.006Z,2.6
2018-11-07T10:43:41.441Z,1.6
2018-11-07T10:53:41.237Z,3.1
2018-11-07T11:03:40.122Z,1.9
2018-11-07T11:13:41.143Z,1
2018-11-07T11:23:41.283Z,0.9
2018-11-07T11:33:41.502Z,0.7
2018-11-07T11:43:46.790Z,0.8
2018-11-07T11:53:47.205Z,1.8
2018-11-07T12:03:57.490Z,1.8
2018-11-07T12:14:07.662Z,0.9
2018-11-07T12:24:21.893Z,0.5
2018-11-07T12:34:36.401Z,0.6
2018-11-07T12:45:02.198Z,0.4
2018-11-07T12:55:16.083Z,0.8
2018-11-07T13:05:23.542Z,0.7
2018-11-07T13:15:26.764Z,0.8
2018-11-07T13:25:26.466Z,0.4
2018-11-07T13:35:27.499Z,0.9
2018-11-07T13:45:35.609Z,1.7
2018-11-07T13:55:36.829Z,0.9
2018-11-07T14:05:37.564Z,0.8
2018-11-07T14:15:37.637Z,1.7
2018-11-07T14:25:38.892Z,2.5
2018-11-07T14:35:41.313Z,1.6
2018-11-07T14:45:41.571Z,0.7
2018-11-07T14:55:42.795Z,0.5
2018-11-07T15:05:42.042Z,2.2
2018-11-07T15:15:41.765Z,2.2
2018-11-07T15:25:42.418Z,1.2
2018-11-07T15:35:42.063Z,1
2018-11-07T15:45:44.946Z,1.4
2018-11-07T15:55:45.268Z,2.4
2018-11-07T16:05:45.980Z,1.2
2018-11-07T16:15:49.647Z,1.5
2018-11-07T16:25:50.647Z,7.3
2018-11-07T16:35:54.092Z,2.2
2018-11-07T16:45:54.216Z,7.5
2018-11-07T16:55:56.146Z,5.6
2018-11-07T17:05:56.640Z,7.1
2018-11-07T17:15:56.910Z,8.1
2018-11-07T17:25:59.102Z,10.6
2018-11-07T17:36:02.832Z,10
2018-11-07T17:46:01.501Z,21.2
2018-11-07T17:56:02.206Z,11.2
2018-11-07T18:06:02.535Z,10.8
2018-11-07T18:16:03.035Z,10.4
2018-11-07T18:26:04.279Z,10.2
2018-11-07T18:36:05.119Z,13.6
2018-11-07T18:46:06.732Z,13.9
2018-11-07T18:56:07.613Z,16.3
2018-11-07T19:06:06.697Z,22.7
2018-11-07T19:16:07.751Z,15.2
2018-11-07T19:26:11.897Z,21.1
2018-11-07T19:36:12.607Z,17.5
2018-11-07T19:46:16.239Z,17.2
2018-11-07T19:56:17.725Z,16.8
2018-11-07T20:06:18.232Z,17.7
2018-11-07T20:16:19.021Z,16
2018-11-07T20:26:20.316Z,27.3
2018-11-07T20:36:22.894Z,23.4
2018-11-07T20:46:24.127Z,21
2018-11-07T20:56:29.476Z,20.3
2018-11-07T21:06:32.527Z,19.4
2018-11-07T21:16:32.230Z,19.9
2018-11-07T21:26:33.061Z,15.6
2018-11-07T21:36:32.678Z,23.2
2018-11-07T21:46:34.173Z,13.6
2018-11-07T21:56:34.072Z,14.5
2018-11-07T22:06:33.578Z,13.2
2018-11-07T22:16:33.535Z,12.8
2018-11-07T22:26:35.211Z,12.3
2018-11-07T22:36:34.758Z,12
2018-11-07T22:46:34.312Z,11.6
2018-11-07T22:56:33.829Z,11
2018-11-07T23:06:34.401Z,9.2
2018-11-07T23:16:33.982Z,7.8
2018-11-07T23:26:33.532Z,5.8
2018-11-07T23:36:33.099Z,6.8
2018-11-07T23:46:30.969Z,12.4
2018-11-07T23:56:30.490Z,5.7
